Aviation Digital Data Service (ADDS)

Output produced by METARs form (1915 UTC 24 May 2015)
found at http://aviationweather.gov/adds/metars/
 
KROA 241720Z 2418/2518 20005KT P6SM FEW050 
     FM250000 19003KT P6SM SKC 
     FM251400 20006KT P6SM FEW030